createdAt,value
2023-04-20T00:00:17.075Z,2.15
2023-04-20T00:02:49.503Z,2.22
2023-04-20T00:05:19.584Z,2.20
2023-04-20T00:07:49.723Z,2.10
2023-04-20T00:10:19.755Z,1.73
2023-04-20T00:12:49.761Z,1.90
2023-04-20T00:15:19.908Z,2.10
2023-04-20T00:17:50.031Z,1.98
2023-04-20T00:20:20.380Z,2.10
2023-04-20T00:22:50.589Z,1.90
2023-04-20T00:25:20.648Z,1.63
2023-04-20T00:27:50.626Z,2.00
2023-04-20T00:30:20.813Z,2.00
2023-04-20T00:32:50.894Z,1.83
2023-04-20T00:35:20.982Z,1.80
2023-04-20T00:37:51.364Z,1.60
2023-04-20T00:40:21.700Z,1.58
2023-04-20T00:42:51.990Z,1.60
2023-04-20T00:45:23.354Z,1.52
2023-04-20T00:47:53.621Z,1.60
2023-04-20T00:50:23.817Z,1.77
2023-04-20T00:52:54.146Z,1.40
2023-04-20T00:55:24.441Z,1.40
2023-04-20T00:57:54.865Z,1.98
2023-04-20T01:00:28.596Z,1.20
2023-04-20T01:02:58.936Z,1.20
2023-04-20T01:05:29.468Z,1.30
2023-04-20T01:07:59.582Z,1.48
2023-04-20T01:10:32.368Z,1.33
2023-04-20T01:13:02.421Z,1.23
2023-04-20T01:15:33.402Z,1.48
2023-04-20T01:18:04.306Z,1.02
2023-04-20T01:20:34.994Z,1.02
2023-04-20T01:23:05.221Z,1.42
2023-04-20T01:25:35.393Z,1.10
2023-04-20T01:28:06.055Z,1.15
2023-04-20T01:30:39.583Z,1.10
2023-04-20T01:33:10.548Z,1.10
2023-04-20T01:35:44.682Z,0.95
2023-04-20T01:38:23.564Z,1.20
2023-04-20T01:40:56.755Z,1.35
2023-04-20T01:43:27.421Z,1.42
2023-04-20T01:45:57.586Z,1.65
2023-04-20T01:48:27.591Z,1.45
2023-04-20T01:50:57.568Z,1.55
2023-04-20T01:53:27.483Z,1.08
2023-04-20T01:55:57.344Z,1.15
2023-04-20T01:58:27.495Z,1.00
2023-04-20T02:00:58.061Z,1.05
2023-04-20T02:03:29.817Z,1.30
2023-04-20T02:06:00.134Z,1.20
2023-04-20T02:11:02.503Z,1.45
2023-04-20T02:13:32.495Z,1.08
2023-04-20T02:16:02.566Z,1.00
2023-04-20T02:18:34.145Z,1.40
2023-04-20T02:21:04.630Z,1.73
2023-04-20T02:23:34.925Z,1.27
2023-04-20T02:26:05.002Z,0.82
2023-04-20T02:28:35.215Z,1.48
2023-04-20T02:31:07.665Z,1.60
2023-04-20T02:33:38.272Z,1.70
2023-04-20T02:36:08.732Z,1.73
2023-04-20T02:38:39.289Z,2.10
2023-04-20T02:41:10.273Z,1.45
2023-04-20T02:43:41.776Z,1.73
2023-04-20T02:46:13.757Z,1.48
2023-04-20T02:48:44.695Z,1.80
2023-04-20T02:51:16.395Z,1.00
2023-04-20T02:53:48.304Z,1.40
2023-04-20T02:56:27.089Z,1.20
2023-04-20T02:59:00.499Z,1.40
2023-04-20T03:01:35.328Z,1.70
2023-04-20T03:04:22.305Z,1.35
2023-04-20T03:07:02.482Z,1.00
2023-04-20T03:09:35.830Z,1.00
2023-04-20T03:12:24.610Z,0.95
2023-04-20T03:14:57.485Z,1.10
2023-04-20T03:17:43.705Z,1.10
2023-04-20T03:20:14.562Z,0.98
2023-04-20T03:22:44.744Z,1.13
2023-04-20T03:25:14.858Z,1.00
2023-04-20T03:27:57.024Z,0.73
2023-04-20T03:30:27.719Z,1.20
2023-04-20T03:33:06.248Z,1.10
2023-04-20T03:35:36.873Z,1.02
2023-04-20T03:38:07.845Z,1.05
2023-04-20T03:40:39.364Z,1.00
2023-04-20T03:43:09.353Z,0.93
2023-04-20T03:45:39.703Z,1.20
2023-04-20T03:48:10.269Z,0.88
2023-04-20T03:50:40.357Z,0.90
2023-04-20T03:53:10.564Z,0.80
2023-04-20T03:55:41.379Z,1.63
2023-04-20T03:58:15.408Z,1.10
2023-04-20T04:01:02.662Z,1.02
2023-04-20T04:03:34.023Z,0.90
2023-04-20T04:06:05.871Z,0.93
2023-04-20T04:08:36.550Z,0.75
2023-04-20T04:11:07.003Z,1.20
2023-04-20T04:13:37.202Z,0.63
2023-04-20T04:16:09.688Z,0.80
2023-04-20T04:18:43.615Z,0.82
2023-04-20T04:21:13.724Z,0.80
2023-04-20T04:23:47.721Z,0.80
2023-04-20T04:26:44.362Z,0.80
2023-04-20T04:29:15.962Z,0.85
2023-04-20T04:31:46.359Z,1.00
2023-04-20T04:34:22.432Z,0.93
2023-04-20T04:36:54.320Z,0.80
2023-04-20T04:39:32.961Z,0.52
2023-04-20T04:42:11.413Z,1.23
2023-04-20T04:44:46.125Z,1.02
2023-04-20T04:47:24.061Z,0.88
2023-04-20T04:49:55.820Z,1.45
2023-04-20T04:52:25.901Z,0.88
2023-04-20T04:54:55.992Z,1.10
2023-04-20T04:57:26.171Z,0.80
2023-04-20T04:59:57.257Z,0.70
2023-04-20T05:02:27.580Z,0.80
2023-04-20T05:04:58.070Z,0.80
2023-04-20T05:07:28.100Z,0.73
2023-04-20T05:09:58.382Z,0.70
2023-04-20T05:12:28.340Z,0.73
2023-04-20T05:14:58.313Z,0.68
2023-04-20T05:17:28.174Z,0.75
2023-04-20T05:19:58.376Z,1.08
2023-04-20T05:22:28.174Z,0.90
2023-04-20T05:24:58.270Z,0.75
2023-04-20T05:27:28.099Z,0.77
2023-04-20T05:30:06.412Z,1.00
2023-04-20T05:32:51.557Z,1.20
2023-04-20T05:35:24.464Z,0.80
2023-04-20T05:37:54.733Z,0.90
2023-04-20T05:40:24.795Z,1.30
2023-04-20T05:42:54.797Z,1.55
2023-04-20T05:45:25.118Z,1.50
2023-04-20T05:47:59.017Z,1.50
2023-04-20T05:50:29.264Z,1.27
2023-04-20T05:52:59.272Z,1.25
2023-04-20T05:55:29.150Z,1.30
2023-04-20T05:57:59.114Z,1.50
2023-04-20T06:00:28.921Z,1.40
2023-04-20T06:02:59.019Z,2.42
2023-04-20T06:05:30.288Z,1.77
2023-04-20T06:08:00.408Z,1.50
2023-04-20T06:10:33.503Z,1.33
2023-04-20T06:13:03.703Z,1.30
2023-04-20T06:15:33.874Z,1.60
2023-04-20T06:18:04.026Z,1.50
2023-04-20T06:20:34.225Z,1.50
2023-04-20T06:23:04.207Z,1.50
2023-04-20T06:25:34.195Z,1.35
2023-04-20T06:28:05.377Z,1.55
2023-04-20T06:30:38.946Z,1.05
2023-04-20T06:33:11.791Z,1.23
2023-04-20T06:35:42.428Z,1.02
2023-04-20T06:38:12.313Z,1.27
2023-04-20T06:40:43.633Z,0.75
2023-04-20T06:43:13.971Z,1.08
2023-04-20T06:45:44.189Z,1.00
2023-04-20T06:48:30.128Z,1.00
2023-04-20T06:51:03.897Z,1.00
2023-04-20T06:53:33.915Z,1.10
2023-04-20T06:56:04.138Z,1.05
2023-04-20T06:58:34.099Z,1.50
2023-04-20T07:01:04.359Z,1.17
2023-04-20T07:03:35.025Z,1.15
2023-04-20T07:06:05.257Z,1.17
2023-04-20T07:08:35.859Z,1.23
2023-04-20T07:11:05.876Z,1.30
2023-04-20T07:13:36.164Z,1.25
2023-04-20T07:16:06.436Z,1.17
2023-04-20T07:18:36.647Z,1.25
2023-04-20T07:21:06.844Z,1.10
2023-04-20T07:23:36.808Z,1.17
2023-04-20T07:26:06.889Z,0.90
2023-04-20T07:28:37.781Z,1.10
2023-04-20T07:31:07.840Z,1.00
2023-04-20T07:33:38.045Z,1.13
2023-04-20T07:36:08.327Z,1.30
2023-04-20T07:38:38.573Z,1.17
2023-04-20T07:41:12.011Z,0.90
2023-04-20T07:43:41.988Z,0.95
2023-04-20T07:46:13.154Z,1.10
2023-04-20T07:48:43.156Z,1.08
2023-04-20T07:51:13.319Z,1.20
2023-04-20T07:53:44.154Z,1.33
2023-04-20T07:56:14.247Z,1.17
2023-04-20T07:58:45.328Z,0.90
2023-04-20T08:01:15.538Z,1.15
2023-04-20T08:03:45.822Z,1.20
2023-04-20T08:06:16.314Z,1.00
2023-04-20T08:08:46.539Z,1.77
2023-04-20T08:11:16.561Z,1.15
2023-04-20T08:13:46.760Z,2.40
2023-04-20T08:16:16.797Z,1.10
2023-04-20T08:18:48.206Z,1.30
2023-04-20T08:21:18.455Z,1.55
2023-04-20T08:23:48.584Z,1.13
2023-04-20T08:26:18.634Z,1.20
2023-04-20T08:28:48.728Z,1.40
2023-04-20T08:31:18.940Z,1.17
2023-04-20T08:33:48.964Z,1.08
2023-04-20T08:36:19.180Z,1.13
2023-04-20T08:38:56.866Z,1.50
2023-04-20T08:41:27.696Z,1.00
2023-04-20T08:43:57.817Z,1.50
2023-04-20T08:46:28.521Z,1.38
2023-04-20T08:48:59.411Z,1.75
2023-04-20T08:51:29.513Z,1.75
2023-04-20T08:54:06.690Z,1.75
2023-04-20T08:56:41.843Z,1.45
2023-04-20T08:59:14.006Z,1.25
2023-04-20T09:01:45.391Z,1.25
2023-04-20T09:04:26.590Z,1.13
2023-04-20T09:06:57.870Z,1.55
2023-04-20T09:09:28.417Z,1.35
2023-04-20T09:12:06.199Z,2.20
2023-04-20T09:14:49.994Z,1.75
2023-04-20T09:17:42.150Z,1.83
2023-04-20T09:20:13.013Z,1.58
2023-04-20T09:22:43.176Z,1.10
2023-04-20T09:25:20.286Z,1.00
2023-04-20T09:28:03.462Z,1.27
2023-04-20T09:30:59.645Z,1.30
2023-04-20T09:33:30.554Z,1.60
2023-04-20T09:36:09.483Z,1.25
2023-04-20T09:38:40.618Z,1.70
2023-04-20T09:41:11.921Z,1.20
2023-04-20T09:43:43.227Z,1.25
2023-04-20T09:46:13.495Z,1.55
2023-04-20T09:48:43.864Z,1.60
2023-04-20T09:51:14.089Z,1.30
2023-04-20T09:53:44.772Z,1.55
2023-04-20T09:56:17.017Z,1.23
2023-04-20T09:58:48.707Z,1.08
2023-04-20T10:01:21.472Z,1.35
2023-04-20T10:03:52.717Z,1.58
2023-04-20T10:06:27.314Z,1.23
2023-04-20T10:08:58.037Z,1.25
2023-04-20T10:11:44.719Z,1.27
2023-04-20T10:14:24.527Z,1.45
2023-04-20T10:17:10.333Z,1.40
2023-04-20T10:19:45.682Z,1.58
2023-04-20T10:22:31.946Z,1.70
2023-04-20T10:25:22.549Z,1.33
2023-04-20T10:28:01.341Z,1.92
2023-04-20T10:30:32.196Z,2.35
2023-04-20T10:33:13.247Z,2.72
2023-04-20T10:35:57.379Z,3.85
2023-04-20T10:38:32.229Z,4.25
2023-04-20T10:41:12.493Z,3.33
2023-04-20T10:43:45.607Z,3.10
2023-04-20T10:46:24.303Z,3.75
2023-04-20T10:49:02.673Z,3.70
2023-04-20T10:51:32.656Z,3.88
2023-04-20T10:54:05.714Z,3.42
2023-04-20T10:56:49.528Z,3.45
2023-04-20T10:59:22.690Z,2.85
2023-04-20T11:01:53.657Z,2.30
2023-04-20T11:04:34.125Z,2.78
2023-04-20T11:07:15.469Z,3.10
2023-04-20T11:09:45.655Z,2.22
2023-04-20T11:12:17.213Z,3.05
2023-04-20T11:14:59.079Z,2.72
2023-04-20T11:17:40.439Z,3.03
2023-04-20T11:20:16.849Z,3.00
2023-04-20T11:22:58.935Z,2.60
2023-04-20T11:25:29.251Z,2.70
2023-04-20T11:28:11.301Z,2.30
2023-04-20T11:30:43.337Z,2.40
2023-04-20T11:33:14.989Z,2.22
2023-04-20T11:35:45.529Z,1.90
2023-04-20T11:38:15.495Z,1.80
2023-04-20T11:40:45.325Z,1.83
2023-04-20T11:43:15.480Z,2.10
2023-04-20T11:45:45.431Z,1.50
2023-04-20T11:48:15.386Z,2.05
2023-04-20T11:50:48.015Z,2.00
2023-04-20T11:53:19.634Z,1.98
2023-04-20T11:55:49.728Z,2.17
2023-04-20T11:58:19.888Z,2.58
2023-04-20T12:00:49.885Z,1.30
2023-04-20T12:03:19.938Z,1.25
2023-04-20T12:05:50.328Z,1.33
2023-04-20T12:08:20.444Z,1.63
2023-04-20T12:10:51.658Z,1.17
2023-04-20T12:13:21.649Z,1.08
2023-04-20T12:15:51.880Z,2.10
2023-04-20T12:18:22.798Z,1.50
2023-04-20T12:20:53.070Z,1.80
2023-04-20T12:23:23.984Z,1.70
2023-04-20T12:25:54.204Z,1.58
2023-04-20T12:28:24.294Z,0.60
2023-04-20T12:30:54.349Z,0.63
2023-04-20T12:33:24.730Z,1.95
2023-04-20T12:35:54.764Z,1.90
2023-04-20T12:38:24.870Z,1.90
2023-04-20T12:40:55.056Z,2.38
2023-04-20T12:43:25.010Z,1.95
2023-04-20T12:45:55.062Z,2.22
2023-04-20T12:48:25.194Z,2.15
2023-04-20T12:50:55.183Z,1.63
2023-04-20T12:53:25.225Z,2.15
2023-04-20T12:56:01.134Z,2.00
2023-04-20T12:58:31.946Z,1.20
2023-04-20T13:01:02.189Z,1.30
2023-04-20T13:03:32.502Z,1.00
2023-04-20T13:06:03.164Z,1.00
2023-04-20T13:08:33.142Z,1.02
2023-04-20T13:11:03.110Z,0.90
2023-04-20T13:13:34.673Z,1.00
2023-04-20T13:16:04.579Z,1.35
2023-04-20T13:18:34.781Z,0.50
2023-04-20T13:21:04.881Z,1.30
2023-04-20T13:23:34.881Z,0.70
2023-04-20T13:26:05.119Z,1.40
2023-04-20T13:28:35.170Z,1.08
2023-04-20T13:31:05.819Z,1.20
2023-04-20T13:33:36.042Z,0.80
2023-04-20T13:36:07.190Z,0.82
2023-04-20T13:38:37.385Z,1.10
2023-04-20T13:41:07.491Z,0.93
2023-04-20T13:43:37.472Z,1.30
2023-04-20T13:46:07.717Z,1.10
2023-04-20T13:48:37.703Z,2.45
2023-04-20T13:51:07.680Z,1.40
2023-04-20T13:53:37.556Z,1.40
2023-04-20T13:56:07.630Z,1.45
2023-04-20T13:58:38.232Z,1.30
2023-04-20T14:01:17.594Z,1.52
2023-04-20T14:03:48.016Z,1.70
2023-04-20T14:06:18.117Z,1.02
2023-04-20T14:08:48.294Z,1.10
2023-04-20T14:11:18.339Z,1.08
2023-04-20T14:13:48.383Z,0.85
2023-04-20T14:16:18.669Z,1.10
2023-04-20T14:18:48.753Z,0.80
2023-04-20T14:21:18.810Z,1.45
2023-04-20T14:23:51.343Z,1.40
2023-04-20T14:26:22.110Z,1.45
2023-04-20T14:28:53.690Z,0.75
2023-04-20T14:31:23.755Z,0.98
2023-04-20T14:33:53.906Z,0.90
2023-04-20T14:36:23.864Z,2.00
2023-04-20T14:38:53.732Z,0.85
2023-04-20T14:41:23.965Z,1.92
2023-04-20T14:43:54.942Z,3.67
2023-04-20T14:46:25.294Z,0.80
2023-04-20T14:48:55.396Z,0.70
2023-04-20T14:51:25.513Z,0.80
2023-04-20T14:53:55.676Z,0.70
2023-04-20T14:56:25.713Z,0.55
2023-04-20T14:58:56.936Z,0.70
2023-04-20T15:01:28.169Z,0.82
2023-04-20T15:03:58.471Z,0.32
2023-04-20T15:06:31.799Z,0.50
2023-04-20T15:09:01.898Z,0.32
2023-04-20T15:11:32.088Z,0.20
2023-04-20T15:14:02.374Z,0.63
2023-04-20T15:16:32.588Z,0.30
2023-04-20T15:19:02.819Z,0.35
2023-04-20T15:21:33.458Z,0.40
2023-04-20T15:24:04.535Z,0.40
2023-04-20T15:26:34.779Z,0.30
2023-04-20T15:29:06.004Z,0.40
2023-04-20T15:31:36.023Z,0.20
2023-04-20T15:34:05.873Z,0.30
2023-04-20T15:36:35.776Z,0.30
2023-04-20T15:39:05.918Z,0.20
2023-04-20T15:41:36.189Z,0.50
2023-04-20T15:44:06.992Z,0.50
2023-04-20T15:46:39.865Z,0.30
2023-04-20T15:49:09.922Z,1.02
2023-04-20T15:51:41.207Z,0.77
2023-04-20T15:54:12.511Z,0.82
2023-04-20T15:56:42.653Z,0.40
2023-04-20T15:59:12.476Z,0.45
2023-04-20T16:01:42.579Z,0.30
2023-04-20T16:04:12.834Z,0.30
2023-04-20T16:06:43.239Z,0.28
2023-04-20T16:09:13.358Z,0.30
2023-04-20T16:11:43.614Z,0.50
2023-04-20T16:14:13.634Z,0.40
2023-04-20T16:16:43.473Z,0.43
2023-04-20T16:19:15.701Z,0.43
2023-04-20T16:21:45.746Z,0.60
2023-04-20T16:24:15.977Z,0.50
2023-04-20T16:26:47.443Z,0.45
2023-04-20T16:29:17.571Z,0.30
2023-04-20T16:31:48.822Z,0.52
2023-04-20T16:34:19.234Z,0.47
2023-04-20T16:36:51.327Z,0.40
2023-04-20T16:39:21.366Z,0.50
2023-04-20T16:41:52.812Z,0.40
2023-04-20T16:44:22.921Z,0.50
2023-04-20T16:46:53.527Z,0.30
2023-04-20T16:49:23.595Z,0.30
2023-04-20T16:51:53.848Z,0.35
2023-04-20T16:54:23.808Z,0.60
2023-04-20T16:56:53.641Z,0.20
2023-04-20T16:59:24.981Z,0.30
2023-04-20T17:01:55.430Z,0.38
2023-04-20T17:04:25.770Z,0.35
2023-04-20T17:06:55.833Z,0.50
2023-04-20T17:09:25.842Z,0.50
2023-04-20T17:11:56.068Z,0.40
2023-04-20T17:14:26.038Z,0.40
2023-04-20T17:16:57.640Z,0.57
2023-04-20T17:19:27.933Z,0.50
2023-04-20T17:21:59.315Z,0.32
2023-04-20T17:24:29.277Z,0.30
2023-04-20T17:27:00.150Z,0.30
2023-04-20T17:29:35.886Z,0.40
2023-04-20T17:32:09.094Z,0.43
2023-04-20T17:34:41.056Z,0.38
2023-04-20T17:39:43.827Z,0.65
2023-04-20T17:42:18.183Z,0.38
2023-04-20T17:44:48.247Z,0.43
2023-04-20T17:47:18.478Z,0.22
2023-04-20T17:49:48.537Z,0.40
2023-04-20T17:52:20.750Z,0.40
2023-04-20T17:54:50.814Z,0.25
2023-04-20T17:57:20.596Z,0.20
2023-04-20T17:59:51.791Z,0.30
2023-04-20T18:02:21.915Z,0.60
2023-04-20T18:04:52.592Z,0.28
2023-04-20T18:07:22.709Z,0.60
2023-04-20T18:09:53.493Z,0.40
2023-04-20T18:12:23.662Z,0.50
2023-04-20T18:14:53.704Z,0.20
2023-04-20T18:17:23.949Z,0.30
2023-04-20T18:19:54.032Z,0.57
2023-04-20T18:22:25.319Z,0.30
2023-04-20T18:24:55.504Z,0.20
2023-04-20T18:27:25.340Z,0.13
2023-04-20T18:29:57.144Z,0.10
2023-04-20T18:32:31.981Z,0.28
2023-04-20T18:35:02.081Z,0.43
2023-04-20T18:37:32.290Z,0.30
2023-04-20T18:40:02.320Z,0.25
2023-04-20T18:42:32.283Z,0.30
2023-04-20T18:45:02.442Z,0.20
2023-04-20T18:47:32.433Z,0.35
2023-04-20T18:50:02.548Z,0.57
2023-04-20T18:52:36.235Z,0.50
2023-04-20T18:55:06.599Z,0.20
2023-04-20T18:57:36.797Z,0.30
2023-04-20T19:00:09.905Z,0.30
2023-04-20T19:02:40.267Z,0.50
2023-04-20T19:05:10.532Z,0.38
2023-04-20T19:07:40.545Z,0.30
2023-04-20T19:10:11.365Z,1.00
2023-04-20T19:12:41.473Z,0.35
2023-04-20T19:15:12.075Z,0.30
2023-04-20T19:17:43.955Z,0.47
2023-04-20T19:20:14.343Z,0.28
2023-04-20T19:22:44.324Z,0.45
2023-04-20T19:25:14.490Z,0.20
2023-04-20T19:27:44.959Z,0.40
2023-04-20T19:30:15.534Z,0.30
2023-04-20T19:32:45.738Z,0.20
2023-04-20T19:35:15.667Z,0.30
2023-04-20T19:37:45.542Z,0.40
2023-04-20T19:40:15.690Z,0.30
2023-04-20T19:42:45.807Z,0.30
2023-04-20T19:45:16.393Z,0.43
2023-04-20T19:47:47.139Z,0.30
2023-04-20T19:50:17.603Z,0.30
2023-04-20T19:52:47.806Z,0.28
2023-04-20T19:55:17.872Z,0.40
2023-04-20T19:57:47.993Z,0.30
2023-04-20T20:00:18.436Z,0.32
2023-04-20T20:02:48.579Z,0.57
2023-04-20T20:05:19.042Z,0.38
2023-04-20T20:07:49.062Z,0.30
2023-04-20T20:10:19.180Z,0.30
2023-04-20T20:12:49.514Z,0.22
2023-04-20T20:15:19.627Z,0.40
2023-04-20T20:17:49.720Z,0.80
2023-04-20T20:20:19.957Z,0.47
2023-04-20T20:22:51.795Z,0.50
2023-04-20T20:25:22.001Z,0.30
2023-04-20T20:27:53.208Z,0.30
2023-04-20T20:30:24.940Z,0.40
2023-04-20T20:32:55.753Z,0.40
2023-04-20T20:35:26.607Z,0.22
2023-04-20T20:37:56.779Z,0.63
2023-04-20T20:40:27.714Z,0.60
2023-04-20T20:42:58.597Z,1.23
2023-04-20T20:45:29.050Z,0.93
2023-04-20T20:47:59.177Z,1.80
2023-04-20T20:50:31.015Z,0.88
2023-04-20T20:53:01.031Z,1.25
2023-04-20T20:55:31.262Z,1.38
2023-04-20T20:58:01.250Z,0.93
2023-04-20T21:00:31.522Z,0.95
2023-04-20T21:03:01.953Z,1.10
2023-04-20T21:05:33.713Z,1.15
2023-04-20T21:08:06.638Z,1.15
2023-04-20T21:10:36.761Z,1.10
2023-04-20T21:13:08.358Z,1.20
2023-04-20T21:15:38.382Z,0.70
2023-04-20T21:18:08.555Z,0.77
2023-04-20T21:20:38.707Z,0.73
2023-04-20T21:23:08.687Z,0.70
2023-04-20T21:25:39.985Z,0.82
2023-04-20T21:28:10.017Z,0.73
2023-04-20T21:30:39.869Z,0.60
2023-04-20T21:33:09.720Z,0.50
2023-04-20T21:35:39.759Z,0.60
2023-04-20T21:38:10.222Z,1.00
2023-04-20T21:40:40.272Z,0.70
2023-04-20T21:43:10.406Z,0.75
2023-04-20T21:45:40.469Z,0.70
2023-04-20T21:48:10.515Z,0.65
2023-04-20T21:50:40.860Z,0.60
2023-04-20T21:53:10.908Z,0.85
2023-04-20T21:55:40.779Z,0.73
2023-04-20T21:58:11.146Z,0.88
2023-04-20T22:00:41.227Z,0.70
2023-04-20T22:03:11.182Z,1.10
2023-04-20T22:05:41.618Z,0.95
2023-04-20T22:08:11.836Z,0.80
2023-04-20T22:10:41.964Z,0.80
2023-04-20T22:13:14.395Z,0.60
2023-04-20T22:15:45.412Z,1.38
2023-04-20T22:18:15.573Z,1.20
2023-04-20T22:20:45.678Z,0.80
2023-04-20T22:23:15.654Z,0.77
2023-04-20T22:25:45.967Z,1.25
2023-04-20T22:28:16.183Z,0.95
2023-04-20T22:30:46.213Z,1.10
2023-04-20T22:33:16.123Z,0.90
2023-04-20T22:35:45.978Z,0.98
2023-04-20T22:38:15.975Z,1.15
2023-04-20T22:40:45.856Z,1.10
2023-04-20T22:43:16.859Z,0.80
2023-04-20T22:45:46.896Z,0.80
2023-04-20T22:48:17.621Z,0.80
2023-04-20T22:50:48.837Z,0.68
2023-04-20T22:53:18.820Z,0.60
2023-04-20T22:55:48.631Z,1.00
2023-04-20T22:58:19.574Z,0.88
2023-04-20T23:00:49.679Z,1.45
2023-04-20T23:03:19.926Z,0.70
2023-04-20T23:05:50.162Z,0.93
2023-04-20T23:08:21.744Z,0.90
2023-04-20T23:10:51.987Z,1.20
2023-04-20T23:13:23.174Z,1.30
2023-04-20T23:15:53.418Z,1.10
2023-04-20T23:18:24.398Z,1.73
2023-04-20T23:20:54.411Z,1.50
2023-04-20T23:23:24.304Z,1.55
2023-04-20T23:25:55.099Z,1.55
2023-04-20T23:28:26.013Z,1.92
2023-04-20T23:30:56.063Z,2.30
2023-04-20T23:33:26.088Z,1.52
2023-04-20T23:35:56.075Z,1.65
2023-04-20T23:38:26.053Z,1.92
2023-04-20T23:40:56.113Z,2.20
2023-04-20T23:43:26.110Z,2.22
2023-04-20T23:45:56.223Z,1.63
2023-04-20T23:48:27.129Z,1.73
2023-04-20T23:50:57.373Z,2.00
2023-04-20T23:53:27.836Z,2.40
2023-04-20T23:55:57.949Z,2.22
2023-04-20T23:58:29.480Z,2.30
